createdAt,value
2023-05-15T00:01:52.079Z,39.58
2023-05-15T00:11:55.839Z,40.47
2023-05-15T00:22:01.539Z,41.16
2023-05-15T00:32:05.458Z,41.66
2023-05-15T00:42:09.767Z,42.04
2023-05-15T00:52:14.508Z,42.30
2023-05-15T01:02:22.330Z,42.39
2023-05-15T01:12:28.082Z,42.69
2023-05-15T01:23:06.180Z,42.80
2023-05-15T01:33:29.151Z,43.03
2023-05-15T01:43:35.442Z,43.17
2023-05-15T01:53:40.885Z,43.42
2023-05-15T02:03:46.541Z,43.86
2023-05-15T02:13:57.191Z,43.88
2023-05-15T02:24:02.306Z,44.06
2023-05-15T02:34:18.118Z,44.55
2023-05-15T02:44:22.959Z,44.11
2023-05-15T02:54:26.495Z,43.73
2023-05-15T03:04:30.118Z,43.64
2023-05-15T03:14:33.932Z,43.62
2023-05-15T03:24:37.491Z,43.36
2023-05-15T03:34:41.233Z,43.43
2023-05-15T03:44:44.837Z,43.27
2023-05-15T03:54:51.679Z,43.15
2023-05-15T04:04:55.236Z,43.53
2023-05-15T04:15:13.313Z,44.24
2023-05-15T04:25:18.268Z,44.51
2023-05-15T04:35:21.990Z,44.73
2023-05-15T04:45:25.935Z,44.58
2023-05-15T04:55:30.773Z,44.36
2023-05-15T05:05:35.173Z,44.35
2023-05-15T05:15:38.816Z,44.04
2023-05-15T05:25:43.451Z,43.75
2023-05-15T05:35:47.096Z,42.82
2023-05-15T05:45:50.714Z,41.82
2023-05-15T05:55:54.503Z,40.79
2023-05-15T06:05:58.066Z,40.20
2023-05-15T06:16:01.773Z,40.10
2023-05-15T06:26:05.819Z,39.29
2023-05-15T06:36:09.383Z,38.73
2023-05-15T06:46:16.343Z,38.86
2023-05-15T06:56:20.032Z,39.26
2023-05-15T07:06:23.645Z,39.77
2023-05-15T07:16:27.261Z,39.59
2023-05-15T07:26:43.592Z,38.93
2023-05-15T07:36:52.845Z,38.23
2023-05-15T07:46:57.033Z,37.52
2023-05-15T07:57:00.875Z,37.48
2023-05-15T08:07:04.671Z,37.13
2023-05-15T08:17:08.218Z,36.33
2023-05-15T08:27:11.793Z,35.32
2023-05-15T08:37:18.016Z,34.34
2023-05-15T08:47:24.351Z,34.22
2023-05-15T08:57:28.756Z,34.37
2023-05-15T09:07:32.842Z,34.66
2023-05-15T09:17:36.529Z,34.72
2023-05-15T09:27:46.347Z,34.34
2023-05-15T09:37:59.943Z,34.44
2023-05-15T09:48:08.410Z,34.26
2023-05-15T09:58:15.535Z,33.79
2023-05-15T10:08:31.084Z,33.00
2023-05-15T10:18:38.808Z,32.26
2023-05-15T10:28:45.653Z,31.62
2023-05-15T10:38:50.638Z,31.54
2023-05-15T10:48:54.503Z,32.10
2023-05-15T10:58:58.220Z,32.10
2023-05-15T11:09:27.748Z,33.11
2023-05-15T11:19:31.710Z,34.02
2023-05-15T11:29:35.819Z,35.87
2023-05-15T11:39:39.889Z,38.59
2023-05-15T11:49:43.718Z,41.58
2023-05-15T11:59:47.316Z,44.65
2023-05-15T12:09:55.485Z,47.06
2023-05-15T12:20:00.167Z,49.04
2023-05-15T12:30:05.579Z,50.93
2023-05-15T12:40:12.019Z,52.02
2023-05-15T12:50:21.011Z,52.71
2023-05-15T13:00:26.497Z,52.84
2023-05-15T13:10:34.643Z,52.63
2023-05-15T13:20:51.880Z,52.32
2023-05-15T13:30:56.055Z,52.03
2023-05-15T13:40:59.783Z,52.17
2023-05-15T13:51:03.479Z,52.25
2023-05-15T14:01:09.198Z,52.58
2023-05-15T14:11:12.835Z,53.17
2023-05-15T14:21:18.817Z,53.44
2023-05-15T14:31:22.450Z,54.09
2023-05-15T14:41:28.099Z,55.21
2023-05-15T14:51:32.205Z,56.62
2023-05-15T15:01:37.388Z,57.71
2023-05-15T15:11:40.984Z,58.97
2023-05-15T15:21:46.797Z,59.70
2023-05-15T15:31:52.789Z,60.17
2023-05-15T15:41:56.608Z,60.38
2023-05-15T15:52:01.902Z,60.98
2023-05-15T16:02:06.356Z,61.51
2023-05-15T16:12:10.174Z,61.80
2023-05-15T16:22:14.001Z,62.51
2023-05-15T16:32:18.207Z,62.87
2023-05-15T16:42:41.999Z,63.19
2023-05-15T16:52:47.771Z,63.70
2023-05-15T17:02:52.210Z,64.21
2023-05-15T17:12:56.147Z,64.35
2023-05-15T17:22:59.738Z,64.69
2023-05-15T17:33:03.607Z,64.78
2023-05-15T17:43:10.044Z,64.94
2023-05-15T17:53:13.952Z,65.39
2023-05-15T18:03:17.996Z,65.61
2023-05-15T18:13:21.877Z,65.74
2023-05-15T18:23:25.364Z,65.96
2023-05-15T18:33:28.965Z,65.86
2023-05-15T18:43:32.578Z,65.94
2023-05-15T18:53:36.198Z,65.92
2023-05-15T19:03:39.956Z,66.06
2023-05-15T19:13:43.554Z,66.22
2023-05-15T19:23:49.622Z,66.00
2023-05-15T19:33:53.343Z,66.06
2023-05-15T19:43:56.974Z,66.05
2023-05-15T19:54:02.399Z,65.70
2023-05-15T20:05:05.135Z,65.52
2023-05-15T20:15:09.437Z,65.95
2023-05-15T20:25:13.024Z,66.15
2023-05-15T20:35:17.065Z,66.02
2023-05-15T20:45:21.054Z,65.89
2023-05-15T20:55:24.705Z,65.72
2023-05-15T21:05:28.593Z,65.82
2023-05-15T21:15:32.229Z,65.61
2023-05-15T21:25:36.018Z,65.34
2023-05-15T21:35:39.978Z,65.52
2023-05-15T21:45:43.616Z,65.58
2023-05-15T21:55:48.487Z,65.23
2023-05-15T22:05:53.035Z,65.09
2023-05-15T22:15:56.973Z,65.17
2023-05-15T22:26:01.332Z,65.10
2023-05-15T22:36:06.933Z,64.74
2023-05-15T22:46:11.376Z,64.75
2023-05-15T22:56:14.996Z,64.77
2023-05-15T23:06:18.746Z,64.57
2023-05-15T23:16:25.774Z,64.67
2023-05-15T23:26:30.013Z,64.89
2023-05-15T23:36:36.166Z,64.90
2023-05-15T23:46:41.672Z,64.72
2023-05-15T23:56:45.561Z,64.71
